Time;durP1;ratioP1;P1;durP2;ratioP2;P2;SDS_P1;SDS_P2;PMS_P1;PMS_P2;Temp;Humidity;BMP_temperature;BMP_pressure;BME280_temperature;BME280_humidity;BME280_pressure;Samples;Min_cycle;Max_cycle;Signal;HPM_P1;HPM_P2
2022/09/11 00:00:51;;;;;;;18.30;13.20;;;;;;;-145.18;100.00;46650.63;4933180;29;20441;-77
2022/09/11 00:03:22;;;;;;;19.10;14.80;;;;;;;-145.18;100.00;46648.69;4933091;29;20051;-77
2022/09/11 00:05:47;;;;;;;19.37;13.40;;;;;;;-145.18;100.00;46646.72;4933198;29;20043;-77
2022/09/11 00:08:16;;;;;;;10.87;7.40;;;;;;;-145.18;100.00;46646.72;4932755;29;20397;-77
2022/09/11 00:10:42;;;;;;;73.37;10.63;;;;;;;-145.18;100.00;46652.59;4933292;29;20031;-77
2022/09/11 00:13:20;;;;;;;182.60;15.33;;;;;;;-145.18;100.00;46648.69;4933276;29;20036;-77
2022/09/11 00:15:46;;;;;;;16.97;11.10;;;;;;;-145.18;100.00;46648.69;4933407;29;20032;-77
2022/09/11 00:18:14;;;;;;;15.47;11.53;;;;;;;-145.18;100.00;46650.63;4932805;29;20137;-76
2022/09/11 00:20:49;;;;;;;178.53;18.97;;;;;;;-145.18;100.00;46648.69;4933190;29;20020;-77
2022/09/11 00:23:16;;;;;;;;;;;;;;;-145.18;100.00;46650.63;4933512;29;20624;-76
2022/09/11 00:25:42;;;;;;;31.40;19.70;;;;;;;-145.18;100.00;46654.53;4935314;29;19914;-76
2022/09/11 00:28:14;;;;;;;46.77;30.17;;;;;;;-145.18;100.00;46650.63;4936435;29;20039;-77
2022/09/11 00:30:42;;;;;;;32.47;22.37;;;;;;;-145.18;100.00;46646.72;4936603;29;20043;-77
2022/09/11 00:33:08;;;;;;;44.77;27.73;;;;;;;-145.18;100.00;46642.81;4936297;29;20389;-77
2022/09/11 00:35:34;;;;;;;38.40;26.43;;;;;;;-145.18;100.00;46646.72;4936346;29;20047;-76
2022/09/11 00:37:59;;;;;;;34.90;25.13;;;;;;;-145.18;100.00;46644.78;4935917;29;20541;-77
2022/09/11 00:40:24;;;;;;;55.50;33.67;;;;;;;-145.18;100.00;46642.81;4936479;29;20036;-76
2022/09/11 00:42:52;;;;;;;37.23;25.37;;;;;;;-145.18;100.00;46644.78;4935983;29;20042;-77
2022/09/11 00:45:24;;;;;;;38.43;24.83;;;;;;;-145.18;100.00;46642.81;4936129;29;20127;-77
2022/09/11 00:47:52;;;;;;;52.60;33.00;;;;;;;-145.18;100.00;46636.94;4936331;29;20032;-76
2022/09/11 00:50:20;;;;;;;55.07;35.20;;;;;;;-145.18;100.00;46644.78;4935993;29;20485;-77
2022/09/11 00:53:01;;;;;;;58.57;34.63;;;;;;;-145.18;100.00;46636.94;4935860;29;20038;-77
2022/09/11 00:55:31;;;;;;;57.90;33.97;;;;;;;-145.18;100.00;46638.91;4936080;29;20036;-77
2022/09/11 00:58:09;;;;;;;65.63;32.53;;;;;;;-145.18;100.00;46640.88;4935760;29;20392;-77
2022/09/11 01:00:38;;;;;;;53.30;34.57;;;;;;;-145.18;100.00;46635.00;4935732;29;20039;-77
2022/09/11 01:03:04;;;;;;;57.13;35.80;;;;;;;-145.18;100.00;46636.94;4935518;29;20111;-77
2022/09/11 01:05:33;;;;;;;61.63;36.43;;;;;;;-145.18;100.00;46660.41;4935931;29;20035;-77
2022/09/11 01:08:02;;;;;;;54.90;33.97;;;;;;;-145.18;100.00;46638.91;4935321;29;20114;-77
2022/09/11 01:11:06;;;;;;;46.23;30.33;;;;;;;-145.18;100.00;46636.94;4935582;29;20203;-77
2022/09/11 01:13:37;;;;;;;50.47;33.00;;;;;;;-145.18;100.00;46660.41;4906316;29;20051;-76
2022/09/11 01:16:18;;;;;;;54.67;32.13;;;;;;;-145.18;100.00;46635.00;4935684;29;20110;-77
2022/09/11 01:19:04;;;;;;;54.27;31.20;;;;;;;-145.18;100.00;46640.88;4935836;29;20039;-76
2022/09/11 01:22:07;;;;;;;45.30;30.15;;;;;;;-145.18;100.00;46638.91;4935275;29;20036;-76
2022/09/11 01:24:50;;;;;;;47.37;30.53;;;;;;;-145.18;100.00;46635.00;4935639;29;20611;-77
2022/09/11 01:27:36;;;;;;;43.23;28.43;;;;;;;-145.18;100.00;46636.94;4934802;29;20046;-76
2022/09/11 01:30:08;;;;;;;48.47;32.73;;;;;;;-145.18;100.00;46635.00;4935468;29;20032;-76
2022/09/11 01:32:43;;;;;;;48.57;32.50;;;;;;;-145.18;100.00;46635.00;4935117;29;20270;-74
2022/09/11 01:35:40;;;;;;;114.97;34.25;;;;;;;-145.18;100.00;46635.00;4927123;29;20030;-75
2022/09/11 01:38:21;;;;;;;135.50;28.93;;;;;;;-145.18;100.00;46636.94;4916110;29;20115;-77
2022/09/11 01:40:53;;;;;;;36.80;25.47;;;;;;;-145.18;100.00;46660.41;4916739;29;20038;-78
2022/09/11 01:43:42;;;;;;;40.80;27.77;;;;;;;-145.18;100.00;46636.94;4915882;29;20047;-75
2022/09/11 01:46:08;;;;;;;71.57;26.43;;;;;;;-145.18;100.00;46636.94;4869999;29;20042;-75
2022/09/11 01:48:46;;;;;;;32.77;24.13;;;;;;;-145.18;100.00;46633.06;4916009;29;20045;-78
2022/09/11 01:51:22;;;;;;;23.67;18.43;;;;;;;-145.18;100.00;46635.00;4899082;29;20024;-78
2022/09/11 01:53:50;;;;;;;27.03;20.07;;;;;;;-145.18;100.00;46635.00;4916253;29;20038;-77
2022/09/11 01:56:21;;;;;;;84.90;20.43;;;;;;;-145.18;100.00;46635.00;4915607;29;20078;-77
2022/09/11 01:58:52;;;;;;;464.93;26.70;;;;;;;-145.18;100.00;46633.06;4916092;29;20024;-77
2022/09/11 02:04:09;;;;;;;128.15;23.23;;;;;;;-145.18;100.00;46633.06;4710746;23;20052;-77
2022/09/11 02:06:45;;;;;;;91.07;20.53;;;;;;;-145.18;100.00;46635.00;4953233;28;20032;-77
2022/09/11 02:09:15;;;;;;;27.63;21.43;;;;;;;-145.18;100.00;46636.94;4953292;28;20117;-77
2022/09/11 02:11:45;;;;;;;29.10;20.60;;;;;;;-145.18;100.00;46633.06;4953288;28;20154;-77
2022/09/11 02:14:38;;;;;;;26.27;18.43;;;;;;;-145.18;100.00;46633.06;4959826;28;20034;-77
2022/09/11 02:17:25;;;;;;;27.90;19.17;;;;;;;-145.18;100.00;46640.88;4956626;28;20035;-77
2022/09/11 02:19:53;;;;;;;23.47;18.27;;;;;;;-145.18;100.00;46635.00;4953604;28;20090;-77
2022/09/11 02:22:19;;;;;;;24.77;17.87;;;;;;;-145.18;100.00;46660.41;4952879;28;20027;-77
2022/09/11 02:24:44;;;;;;;19.37;14.80;;;;;;;-145.18;100.00;46635.00;4953782;28;20494;-77
2022/09/11 02:27:15;;;;;;;15.57;12.40;;;;;;;-145.18;100.00;46635.00;4954224;28;20122;-77
2022/09/11 02:29:41;;;;;;;104.40;18.40;;;;;;;-145.18;100.00;46636.94;4953484;28;20393;-77
2022/09/11 02:32:10;;;;;;;135.23;20.17;;;;;;;-145.18;100.00;46638.91;4952770;28;20035;-77
2022/09/11 02:34:37;;;;;;;216.00;21.87;;;;;;;-145.18;100.00;46660.41;4953241;28;20063;-77
2022/09/11 02:37:23;;;;;;;541.43;24.93;;;;;;;-145.18;100.00;46636.94;4952497;28;20043;-77
2022/09/11 02:40:07;;;;;;;267.25;21.52;;;;;;;-145.18;100.00;46638.91;4953560;28;20034;-77
2022/09/11 02:43:02;;;;;;;510.67;28.47;;;;;;;-145.18;100.00;46638.91;4952918;28;20213;-77
2022/09/11 02:45:30;;;;;;;337.40;24.77;;;;;;;-145.18;100.00;46633.06;4953283;28;20035;-76
2022/09/11 02:47:58;;;;;;;685.33;32.73;;;;;;;-145.18;100.00;46636.94;4952191;28;20106;-77
2022/09/11 02:50:33;;;;;;;59.83;19.63;;;;;;;-145.18;100.00;46633.06;4953106;28;20023;-77
2022/09/11 02:53:12;;;;;;;29.60;20.27;;;;;;;-145.18;100.00;46640.88;4952570;28;20035;-77
2022/09/11 02:56:02;;;;;;;29.40;20.93;;;;;;;-145.18;100.00;46636.94;4952876;28;20027;-77
2022/09/11 02:58:45;;;;;;;22.83;16.53;;;;;;;-145.18;100.00;46638.91;4952876;28;20097;-77
2022/09/11 03:01:11;;;;;;;15.80;12.43;;;;;;;-145.18;100.00;46636.94;4951272;28;20035;-77
2022/09/11 03:03:41;;;;;;;17.40;11.47;;;;;;;-145.18;100.00;46636.94;4933509;29;20381;-77
2022/09/11 03:06:10;;;;;;;14.80;11.93;;;;;;;-145.18;100.00;46636.94;4933712;29;20035;-77
2022/09/11 03:08:36;;;;;;;18.70;15.00;;;;;;;-145.18;100.00;46640.88;4933461;29;20028;-77
2022/09/11 03:11:01;;;;;;;16.17;13.23;;;;;;;-145.18;100.00;46635.00;4933732;29;20385;-76
2022/09/11 03:13:27;;;;;;;17.93;14.07;;;;;;;-145.18;100.00;46635.00;4933427;29;20028;-77
2022/09/11 03:15:53;;;;;;;12.27;10.50;;;;;;;-145.18;100.00;46636.94;4933592;29;20070;-77
2022/09/11 03:18:18;;;;;;;12.70;10.87;;;;;;;-145.18;100.00;46636.94;4932066;29;20401;-77
2022/09/11 03:20:48;;;;;;;21.27;13.47;;;;;;;-145.18;100.00;46631.09;4933927;29;20040;-77
2022/09/11 03:23:14;;;;;;;117.03;13.03;;;;;;;-145.18;100.00;46635.00;4933010;29;20039;-77
2022/09/11 03:25:40;;;;;;;100.47;15.87;;;;;;;-145.18;100.00;46636.94;4933875;29;20031;-77
2022/09/11 03:28:06;;;;;;;19.03;11.97;;;;;;;-145.18;100.00;46636.94;4933042;29;20070;-77
2022/09/11 03:30:32;;;;;;;24.53;16.63;;;;;;;-145.18;100.00;46636.94;4933562;29;20505;-77
2022/09/11 03:32:57;;;;;;;20.77;13.57;;;;;;;-145.18;100.00;46635.00;4933232;29;20046;-78
2022/09/11 03:35:24;;;;;;;244.33;22.47;;;;;;;-145.18;100.00;46635.00;4932171;29;20042;-77
2022/09/11 03:37:49;;;;;;;274.37;20.80;;;;;;;-145.18;100.00;46642.81;4933114;29;20453;-76
2022/09/11 03:40:15;;;;;;;356.30;22.93;;;;;;;-145.18;100.00;46636.94;4933308;29;20036;-77
2022/09/11 03:42:40;;;;;;;501.77;25.07;;;;;;;-145.18;100.00;46638.91;4932930;29;20519;-77
2022/09/11 03:45:06;;;;;;;33.97;17.03;;;;;;;-145.18;100.00;46635.00;4933285;29;20087;-77
2022/09/11 03:47:31;;;;;;;23.83;16.77;;;;;;;-145.18;100.00;46638.91;4933148;29;20036;-77
2022/09/11 03:49:57;;;;;;;52.43;14.17;;;;;;;-145.18;100.00;46640.88;4933333;29;20637;-77
2022/09/11 03:52:22;;;;;;;16.00;12.93;;;;;;;-145.18;100.00;46638.91;4932968;29;20051;-77
2022/09/11 03:54:48;;;;;;;12.33;9.93;;;;;;;-145.18;100.00;46638.91;4943932;29;20051;-77
2022/09/11 03:57:14;;;;;;;15.97;11.13;;;;;;;-145.18;100.00;46638.91;4952044;28;20126;-77
2022/09/11 03:59:39;;;;;;;16.80;9.20;;;;;;;-145.18;100.00;46636.94;4953209;28;20038;-77
2022/09/11 04:02:05;;;;;;;30.13;8.80;;;;;;;-145.18;100.00;46636.94;4955723;28;20066;-77
2022/09/11 04:04:30;;;;;;;16.80;10.43;;;;;;;-145.18;100.00;46633.06;4955797;29;20090;-77
2022/09/11 04:06:55;;;;;;;233.60;14.07;;;;;;;-145.18;100.00;46638.91;4956239;28;20035;-77
2022/09/11 04:09:21;;;;;;;144.27;16.20;;;;;;;-145.18;100.00;46635.00;4954276;29;20035;-78
2022/09/11 04:11:46;;;;;;;144.73;16.20;;;;;;;-145.18;100.00;46635.00;4956031;28;20040;-77
2022/09/11 04:14:11;;;;;;;133.93;14.20;;;;;;;-145.18;100.00;46636.94;4955388;28;20046;-77
2022/09/11 04:16:37;;;;;;;172.43;13.93;;;;;;;-145.18;100.00;46636.94;4955860;28;20122;-78
2022/09/11 04:19:03;;;;;;;151.90;11.77;;;;;;;-145.18;100.00;46636.94;4955443;28;20059;-77
2022/09/11 04:21:29;;;;;;;90.67;10.40;;;;;;;-145.18;100.00;46635.00;4956000;28;20117;-77
2022/09/11 04:23:58;;;;;;;17.10;9.37;;;;;;;-145.18;100.00;46635.00;4955584;28;20031;-77
2022/09/11 04:26:26;;;;;;;9.47;8.20;;;;;;;-145.18;100.00;46638.91;4955767;28;20031;-77
2022/09/11 04:28:51;;;;;;;9.70;7.60;;;;;;;-145.18;100.00;46636.94;4955274;28;20054;-78
2022/09/11 04:31:17;;;;;;;9.37;8.57;;;;;;;-145.18;100.00;46638.91;4955605;28;20448;-77
2022/09/11 04:33:43;;;;;;;12.07;9.57;;;;;;;-145.18;100.00;46633.06;4955442;28;20095;-77
2022/09/11 04:36:16;;;;;;;33.40;9.57;;;;;;;-145.18;100.00;46638.91;4955114;28;20039;-77
2022/09/11 04:38:42;;;;;;;54.10;12.33;;;;;;;-145.18;100.00;46636.94;4950513;28;20035;-77
2022/09/11 04:41:08;;;;;;;68.47;12.10;;;;;;;-145.18;100.00;46636.94;4933550;29;20039;-77
2022/09/11 04:43:35;;;;;;;66.63;8.97;;;;;;;-145.18;100.00;46631.09;4935753;29;20028;-77
2022/09/11 04:46:06;;;;;;;247.77;13.17;;;;;;;-145.18;100.00;46638.91;4934729;29;20488;-77
2022/09/11 04:48:32;;;;;;;154.00;12.27;;;;;;;-145.18;100.00;46640.88;4932309;29;20062;-77
2022/09/11 04:51:03;;;;;;;137.27;12.13;;;;;;;-145.18;100.00;46642.81;4934565;29;20078;-77
2022/09/11 04:53:30;;;;;;;107.87;12.53;;;;;;;-145.18;100.00;46633.06;4934024;29;20031;-77
2022/09/11 04:56:07;;;;;;;108.30;12.80;;;;;;;-145.18;100.00;46640.88;4945688;28;20050;-77
2022/09/11 04:58:34;;;;;;;173.80;13.50;;;;;;;-145.18;100.00;46638.91;4935047;29;20538;-77
2022/09/11 05:00:59;;;;;;;114.13;13.80;;;;;;;-145.18;100.00;46642.81;4936170;29;20035;-77
2022/09/11 05:03:25;;;;;;;23.03;13.57;;;;;;;-145.18;100.00;46635.00;4935015;29;20139;-77
2022/09/11 05:05:50;;;;;;;47.00;14.27;;;;;;;-145.18;100.00;46636.94;4935546;29;20150;-77
2022/09/11 05:08:19;;;;;;;73.60;13.73;;;;;;;-145.18;100.00;46636.94;4935361;29;20507;-76
2022/09/11 05:10:45;;;;;;;100.30;12.23;;;;;;;-145.18;100.00;46640.88;4935467;29;20027;-76
2022/09/11 05:13:11;;;;;;;152.17;13.20;;;;;;;-145.18;100.00;46636.94;4935206;29;20050;-77
2022/09/11 05:15:36;;;;;;;55.23;12.73;;;;;;;-145.18;100.00;46638.91;4935696;29;20036;-77
2022/09/11 05:18:03;;;;;;;105.40;12.73;;;;;;;-145.18;100.00;46635.00;4930604;29;20035;-77
2022/09/11 05:20:29;;;;;;;56.30;13.07;;;;;;;-145.18;100.00;46635.00;4924272;29;20367;-77
2022/09/11 05:22:55;;;;;;;137.97;13.70;;;;;;;-145.18;100.00;46638.91;4939692;29;20110;-77
2022/09/11 05:25:21;;;;;;;154.70;16.60;;;;;;;-145.18;100.00;46636.94;4938446;29;20031;-77
2022/09/11 05:27:46;;;;;;;257.27;19.07;;;;;;;-145.18;100.00;46640.88;4933829;29;20564;-77
2022/09/11 05:30:12;;;;;;;306.80;23.40;;;;;;;-145.18;100.00;46635.00;4935047;29;20088;-77
2022/09/11 05:32:38;;;;;;;57.33;18.10;;;;;;;-145.18;100.00;46633.06;4935124;29;20426;-77
2022/09/11 05:35:03;;;;;;;138.23;20.97;;;;;;;-145.18;100.00;46635.00;4944249;29;20031;-77
2022/09/11 05:37:29;;;;;;;220.83;22.50;;;;;;;-145.18;100.00;46633.06;4954260;28;20039;-77
2022/09/11 05:39:54;;;;;;;79.83;21.03;;;;;;;-145.18;100.00;46635.00;4954077;28;20035;-77
2022/09/11 05:42:20;;;;;;;174.37;24.37;;;;;;;-145.18;100.00;46636.94;4954441;28;20503;-77
2022/09/11 05:44:46;;;;;;;42.07;23.47;;;;;;;-145.18;100.00;46635.00;4954078;28;20063;-77
2022/09/11 05:47:13;;;;;;;158.40;24.67;;;;;;;-145.18;100.00;46633.06;4954155;28;20567;-76
2022/09/11 05:49:38;;;;;;;119.63;21.97;;;;;;;-145.18;100.00;46635.00;4953587;28;20031;-76
2022/09/11 05:52:04;;;;;;;179.97;24.40;;;;;;;-145.18;100.00;46633.06;4953722;28;20034;-76
2022/09/11 05:54:29;;;;;;;278.33;27.10;;;;;;;-145.18;100.00;46631.09;4953738;28;20039;-76
2022/09/11 05:56:55;;;;;;;119.00;23.63;;;;;;;-145.18;100.00;46633.06;4953923;28;20100;-76
2022/09/11 05:59:20;;;;;;;171.87;24.57;;;;;;;-145.18;100.00;46633.06;4953144;28;20035;-76
2022/09/11 06:01:46;;;;;;;66.03;21.93;;;;;;;-145.18;100.00;46633.06;4930253;29;20043;-76
2022/09/11 06:04:12;;;;;;;82.53;20.20;;;;;;;-145.18;100.00;46633.06;4931250;29;20183;-76
2022/09/11 06:06:38;;;;;;;97.73;20.80;;;;;;;-145.18;100.00;46636.94;4934636;29;20095;-76
2022/09/11 06:09:06;;;;;;;45.00;21.00;;;;;;;-145.18;100.00;46636.94;4929335;29;20028;-76
2022/09/11 06:11:32;;;;;;;154.77;23.90;;;;;;;-145.18;100.00;46631.09;4922039;29;20059;-76
2022/09/11 06:13:58;;;;;;;183.77;24.87;;;;;;;-145.18;100.00;46633.06;4933492;29;20511;-77
2022/09/11 06:16:24;;;;;;;282.87;29.53;;;;;;;-145.18;100.00;46631.09;4934165;29;20040;-76
2022/09/11 06:18:53;;;;;;;75.83;25.30;;;;;;;-145.18;100.00;46631.09;4933806;29;20520;-76
2022/09/11 06:21:21;;;;;;;215.20;26.30;;;;;;;-145.18;100.00;46633.06;4933889;29;20024;-75
2022/09/11 06:23:51;;;;;;;200.20;27.07;;;;;;;-145.18;100.00;46636.94;4933027;29;20028;-76
2022/09/11 06:26:20;;;;;;;72.80;23.93;;;;;;;-145.18;100.00;46631.09;4934186;29;20115;-76
2022/09/11 06:28:46;;;;;;;107.67;25.00;;;;;;;-145.18;100.00;46633.06;4933835;29;20027;-75
2022/09/11 06:31:17;;;;;;;122.97;26.23;;;;;;;-145.18;100.00;46631.09;4933543;29;20031;-75
2022/09/11 06:33:43;;;;;;;79.97;24.87;;;;;;;-145.18;100.00;46633.06;4932584;29;20028;-75
2022/09/11 06:36:12;;;;;;;65.40;24.67;;;;;;;-145.18;100.00;46633.06;4933317;29;20067;-75
2022/09/11 06:38:38;;;;;;;180.03;26.47;;;;;;;-145.18;100.00;46633.06;4933949;29;20475;-75
2022/09/11 06:41:06;;;;;;;133.53;26.33;;;;;;;-145.18;100.00;46629.13;4933719;29;20059;-76
2022/09/11 06:43:32;;;;;;;100.13;26.57;;;;;;;-145.18;100.00;46629.13;4933538;29;20103;-75
2022/09/11 06:46:11;;;;;;;226.20;27.40;;;;;;;-145.18;100.00;46633.06;4934041;29;20631;-75
2022/09/11 06:48:41;;;;;;;82.57;26.63;;;;;;;-145.18;100.00;46629.13;4933065;29;20023;-78
2022/09/11 06:51:10;;;;;;;136.13;26.53;;;;;;;-145.18;100.00;46633.06;4933962;29;20032;-76
2022/09/11 06:53:36;;;;;;;122.87;26.33;;;;;;;-145.18;100.00;46625.22;4933493;29;20027;-75
2022/09/11 06:56:03;;;;;;;97.87;27.43;;;;;;;-145.18;100.00;46627.19;4933794;29;20397;-75
2022/09/11 06:58:29;;;;;;;71.50;24.53;;;;;;;-145.18;100.00;46627.19;4933156;29;20028;-78
2022/09/11 07:00:55;;;;;;;82.57;24.83;;;;;;;-145.18;100.00;46631.09;4933831;29;20038;-78
2022/09/11 07:03:21;;;;;;;84.77;25.87;;;;;;;-145.18;100.00;46629.13;4932688;29;20047;-77
2022/09/11 07:05:46;;;;;;;154.97;25.07;;;;;;;-145.18;100.00;46629.13;4933713;29;20036;-77
2022/09/11 07:08:11;;;;;;;60.47;24.50;;;;;;;-145.18;100.00;46633.06;4932974;29;20028;-77
2022/09/11 07:10:37;;;;;;;175.37;27.07;;;;;;;-145.18;100.00;46627.19;4932621;29;20528;-78
2022/09/11 07:13:02;;;;;;;125.60;25.90;;;;;;;-145.18;100.00;46627.19;4932991;29;20083;-78
2022/09/11 07:15:28;;;;;;;91.47;26.00;;;;;;;-145.18;100.00;46625.22;4933386;29;20106;-77
2022/09/11 07:17:54;;;;;;;112.50;25.37;;;;;;;-145.18;100.00;46619.38;4933141;29;20036;-78
2022/09/11 07:20:21;;;;;;;62.23;25.87;;;;;;;-145.18;100.00;46625.22;4933239;29;20436;-78
2022/09/11 07:22:47;;;;;;;39.77;25.27;;;;;;;-145.18;100.00;46623.28;4933544;29;20110;-78
2022/09/11 07:25:13;;;;;;;78.87;26.17;;;;;;;-145.18;100.00;46623.28;4933134;29;20524;-78
2022/09/11 07:27:38;;;;;;;125.17;27.00;;;;;;;-145.18;100.00;46623.28;4932358;29;20122;-78
2022/09/11 07:30:04;;;;;;;99.60;26.27;;;;;;;-145.18;100.00;46625.22;4933036;29;20036;-78
2022/09/11 07:32:30;;;;;;;49.23;26.40;;;;;;;-145.18;100.00;46625.22;4933242;29;20393;-77
2022/09/11 07:34:55;;;;;;;83.13;29.27;;;;;;;-145.18;100.00;46629.13;4935535;29;20488;-78
2022/09/11 07:37:21;;;;;;;77.33;26.80;;;;;;;-145.18;100.00;46621.31;4936617;29;20043;-78
2022/09/11 07:39:46;;;;;;;46.47;25.37;;;;;;;-145.18;100.00;46621.31;4935437;29;20050;-78
2022/09/11 07:42:11;;;;;;;61.93;28.67;;;;;;;-145.18;100.00;46627.19;4936952;29;20044;-78
2022/09/11 07:44:37;;;;;;;69.43;29.03;;;;;;;-145.18;100.00;46627.19;4936774;29;20111;-78
2022/09/11 07:47:03;;;;;;;65.77;28.60;;;;;;;-145.18;100.00;46629.13;4936061;29;20492;-78
2022/09/11 07:49:29;;;;;;;61.47;30.37;;;;;;;-145.18;100.00;46629.13;4936553;29;20043;-78
2022/09/11 07:51:54;;;;;;;47.43;30.97;;;;;;;-145.18;100.00;46627.19;4936153;29;20036;-76
2022/09/11 07:54:20;;;;;;;53.83;31.10;;;;;;;-145.18;100.00;46629.13;4936029;29;20087;-76
2022/09/11 07:56:47;;;;;;;57.90;30.30;;;;;;;-145.18;100.00;46633.06;4936143;29;20039;-76
2022/09/11 07:59:12;;;;;;;44.67;30.03;;;;;;;-145.18;100.00;46631.09;4934922;29;20047;-76
2022/09/11 08:01:38;;;;;;;53.23;32.70;;;;;;;-145.18;100.00;46627.19;4936033;29;20040;-76
2022/09/11 08:04:06;;;;;;;61.37;37.63;;;;;;;-145.18;100.00;46631.09;4935722;29;20127;-76
2022/09/11 08:06:34;;;;;;;59.67;37.63;;;;;;;-145.18;100.00;46633.06;4934599;29;20513;-76
2022/09/11 08:09:03;;;;;;;53.80;36.47;;;;;;;-145.18;100.00;46635.00;4935019;29;20039;-76
2022/09/11 08:11:30;;;;;;;53.97;35.83;;;;;;;-145.18;100.00;46631.09;4932103;29;20040;-76
2022/09/11 08:13:56;;;;;;;49.00;32.70;;;;;;;-145.18;100.00;46636.94;4918332;29;20046;-79
2022/09/11 08:16:24;;;;;;;54.03;35.37;;;;;;;-145.18;100.00;46636.94;4933866;29;20043;-77
2022/09/11 08:18:50;;;;;;;56.70;35.40;;;;;;;-145.18;100.00;46638.91;4935077;29;20035;-76
2022/09/11 08:21:17;;;;;;;54.27;36.17;;;;;;;-145.18;100.00;46633.06;4935653;29;20131;-77
2022/09/11 08:23:43;;;;;;;51.00;35.17;;;;;;;-145.18;100.00;46636.94;4935524;29;20436;-77
2022/09/11 08:26:13;;;;;;;56.47;37.30;;;;;;;-145.18;100.00;46638.91;4935861;29;20050;-77
2022/09/11 08:28:39;;;;;;;49.93;35.53;;;;;;;-145.18;100.00;46642.81;4934244;29;20564;-77
2022/09/11 08:31:05;;;;;;;50.13;32.50;;;;;;;-145.18;100.00;46644.78;4935004;29;20047;-78
2022/09/11 08:33:32;;;;;;;46.90;33.83;;;;;;;-145.18;100.00;46646.72;4934780;29;20040;-78
2022/09/11 08:35:58;;;;;;;43.37;32.73;;;;;;;-145.18;100.00;46646.72;4933929;29;20050;-77
2022/09/11 08:38:24;;;;;;;42.53;30.47;;;;;;;-145.18;100.00;46652.59;4934477;29;20115;-78
2022/09/11 08:40:50;;;;;;;39.93;29.27;;;;;;;-145.18;100.00;46652.59;4936019;29;20110;-78
2022/09/11 08:43:23;;;;;;;40.03;28.90;;;;;;;-145.18;100.00;46668.22;4935740;29;20031;-78
2022/09/11 08:45:54;;;;;;;38.17;28.67;;;;;;;-145.18;100.00;46664.31;4935010;29;20045;-77
2022/09/11 08:48:28;;;;;;;35.43;27.23;;;;;;;-145.18;100.00;46672.13;4935274;29;20481;-77
2022/09/11 08:50:54;;;;;;;33.70;26.77;;;;;;;-145.18;100.00;46672.13;4935973;29;20633;-78
2022/09/11 08:53:19;;;;;;;31.00;25.73;;;;;;;-145.18;100.00;46674.06;4935295;29;20134;-78
2022/09/11 08:55:51;;;;;;;29.97;23.80;;;;;;;-145.18;100.00;46677.97;4935724;29;20039;-78
2022/09/11 08:58:56;;;;;;;30.63;25.27;;;;;;;-145.18;100.00;46676.03;4935219;29;20038;-78
2022/09/11 09:01:48;;;;;;;31.67;24.67;;;;;;;-145.18;100.00;46679.94;4935469;29;20059;-78
2022/09/11 09:04:26;;;;;;;26.33;22.27;;;;;;;-145.18;100.00;46683.84;4930174;29;20047;-78
2022/09/11 09:07:30;;;;;;;26.43;21.13;;;;;;;-145.18;100.00;46681.88;4935623;29;20035;-78
2022/09/11 09:10:44;;;;;;;21.73;18.03;;;;;;;-145.18;100.00;46685.78;4934558;29;20485;-78
2022/09/11 09:13:41;;;;;;;17.07;13.83;;;;;;;-145.18;100.00;46689.69;4918821;29;20159;-79
2022/09/11 09:16:31;;;;;;;24.80;19.67;;;;;;;-145.18;100.00;46691.66;4934781;29;20549;-78
2022/09/11 09:19:07;;;;;;;24.00;21.47;;;;;;;-145.18;100.00;46691.66;4934547;29;20042;-78
2022/09/11 09:21:47;;;;;;;25.60;21.02;;;;;;;-145.18;100.00;46695.56;4934929;29;20110;-77
2022/09/11 09:24:18;;;;;;;24.43;20.43;;;;;;;-145.18;100.00;46697.50;4934925;29;20370;-77
2022/09/11 09:26:49;;;;;;;19.23;14.70;;;;;;;-145.18;100.00;46701.41;4935409;29;20164;-76
2022/09/11 09:29:19;;;;;;;15.73;13.73;;;;;;;-145.18;100.00;46701.41;4934620;29;20048;-77
2022/09/11 09:31:49;;;;;;;23.13;19.83;;;;;;;-145.18;100.00;46701.41;4934015;29;20082;-76
2022/09/11 09:34:23;;;;;;;26.17;20.57;;;;;;;-145.18;100.00;46697.50;4934399;29;20040;-73
2022/09/11 09:36:52;;;;;;;17.70;15.90;;;;;;;-145.18;100.00;46697.50;4934356;29;20039;-73
2022/09/11 09:39:18;;;;;;;18.70;16.00;;;;;;;-145.18;100.00;46703.38;4934274;29;20036;-72
2022/09/11 09:42:02;;;;;;;22.73;17.37;;;;;;;-145.18;100.00;46703.38;4935097;29;20395;-72
2022/09/11 09:44:41;;;;;;;15.47;13.87;;;;;;;-145.18;100.00;46703.38;4934131;29;20143;-72
2022/09/11 09:47:11;;;;;;;16.80;14.80;;;;;;;-145.18;100.00;46699.47;4934932;29;20031;-73
2022/09/11 09:49:37;;;;;;;20.07;17.03;;;;;;;-145.18;100.00;46699.47;4934211;29;20035;-73
2022/09/11 09:52:17;;;;;;;17.60;15.80;;;;;;;-145.18;100.00;46695.56;4934407;29;20540;-73
2022/09/11 09:55:00;;;;;;;16.30;12.53;;;;;;;-145.18;100.00;46699.47;4934246;29;20031;-72
2022/09/11 09:57:30;;;;;;;12.90;11.60;;;;;;;-145.18;100.00;46703.38;4933846;29;20508;-73
2022/09/11 10:00:07;;;;;;;15.73;12.77;;;;;;;-145.18;100.00;46697.50;4934251;29;20039;-73
2022/09/11 10:02:47;;;;;;;16.77;15.03;;;;;;;-145.18;100.00;46699.47;4931502;29;20059;-73
2022/09/11 10:05:25;;;;;;;16.57;13.90;;;;;;;-145.18;100.00;46672.13;4933338;29;20032;-73
2022/09/11 10:07:53;;;;;;;15.87;14.27;;;;;;;-145.18;100.00;46613.50;4933456;29;20180;-73
2022/09/11 10:10:30;;;;;;;14.50;12.90;;;;;;;-145.18;100.00;46633.06;4933923;29;20561;-73
2022/09/11 10:13:00;;;;;;;12.80;10.57;;;;;;;-145.18;100.00;46578.34;4934154;29;20036;-73
2022/09/11 10:15:26;;;;;;;12.37;10.67;;;;;;;-145.18;100.00;46582.25;4929224;29;20091;-73
2022/09/11 10:17:55;;;;;;;13.03;11.10;;;;;;;-145.18;100.00;46582.25;4951662;29;20031;-73
2022/09/11 10:20:25;;;;;;;14.53;10.67;;;;;;;-145.18;100.00;46586.16;4946336;28;20510;-72
2022/09/11 10:22:52;;;;;;;12.87;11.57;;;;;;;-145.18;100.00;46592.03;4934055;29;20043;-73
2022/09/11 10:25:26;;;;;;;13.07;11.20;;;;;;;-145.18;100.00;46588.13;4931092;29;20046;-73
2022/09/11 10:28:15;;;;;;;13.43;11.20;;;;;;;-145.18;100.00;46584.22;4932664;29;20561;-73
2022/09/11 10:30:53;;;;;;;13.70;11.50;;;;;;;-145.18;100.00;46597.88;4933752;29;20793;-73
2022/09/11 10:33:27;;;;;;;11.03;9.90;;;;;;;-145.18;100.00;46578.34;4933511;29;20027;-73
2022/09/11 10:35:54;;;;;;;11.80;8.73;;;;;;;-145.18;100.00;46582.25;4933880;29;20032;-73
2022/09/11 10:38:26;;;;;;;12.57;8.57;;;;;;;-145.18;100.00;46601.78;4933718;29;20066;-73
2022/09/11 10:41:04;;;;;;;10.10;7.10;;;;;;;-145.18;100.00;46576.41;4934019;29;20039;-73
2022/09/11 10:43:42;;;;;;;11.20;8.70;;;;;;;-145.18;100.00;46599.84;4933636;29;20027;-73
2022/09/11 10:46:36;;;;;;;10.33;8.50;;;;;;;-145.18;100.00;46629.13;4933581;29;20042;-73
2022/09/11 10:49:04;;;;;;;11.20;8.23;;;;;;;-145.18;100.00;46578.34;4914769;29;20027;-73
2022/09/11 10:51:33;;;;;;;7.10;6.40;;;;;;;-145.18;100.00;46605.69;4914858;29;20662;-73
2022/09/11 10:53:58;;;;;;;11.17;7.53;;;;;;;-145.18;100.00;46627.19;4914596;29;20028;-73
2022/09/11 10:56:26;;;;;;;11.43;7.50;;;;;;;-145.18;100.00;46605.69;4914589;29;20047;-73
2022/09/11 10:58:58;;;;;;;11.13;8.02;;;;;;;-145.18;100.00;46609.59;4913646;29;20035;-73
2022/09/11 11:01:24;;;;;;;11.40;6.75;;;;;;;-145.18;100.00;46957.31;4914992;29;20039;-73
2022/09/11 11:03:51;;;;;;;8.10;5.80;;;;;;;-145.18;100.00;47117.50;4931956;29;20465;-72
2022/09/11 11:06:31;;;;;;;8.20;6.18;;;;;;;-145.18;100.00;46672.13;4931929;29;20039;-73
2022/09/11 11:09:13;;;;;;;9.70;6.93;;;;;;;-145.18;100.00;46711.19;4932733;29;20028;-72
2022/09/11 11:11:49;;;;;;;10.00;6.93;;;;;;;-145.18;100.00;46703.38;4933149;29;20038;-72